sensor_id;sensor_type;location;lat;lon;timestamp;temperature;humidity
34147;DHT22;20423;49.448;9.056;2024-01-15T00:02:24;-5.50;99.90
34147;DHT22;20423;49.448;9.056;2024-01-15T00:04:49;-5.40;99.90
34147;DHT22;20423;49.448;9.056;2024-01-15T00:07:15;-5.40;99.90
34147;DHT22;20423;49.448;9.056;2024-01-15T00:12:28;-5.40;99.90
34147;DHT22;20423;49.448;9.056;2024-01-15T00:14:54;-5.40;99.90
34147;DHT22;20423;49.448;9.056;2024-01-15T00:17:19;-5.40;99.90
34147;DHT22;20423;49.448;9.056;2024-01-15T00:19:45;-5.40;99.90
34147;DHT22;20423;49.448;9.056;2024-01-15T00:22:10;-5.30;99.90
34147;DHT22;20423;49.448;9.056;2024-01-15T00:24:36;-5.40;99.90
34147;DHT22;20423;49.448;9.056;2024-01-15T00:27:02;-5.40;99.90
34147;DHT22;20423;49.448;9.056;2024-01-15T00:29:27;-5.30;99.90
34147;DHT22;20423;49.448;9.056;2024-01-15T00:31:53;-5.30;99.90
34147;DHT22;20423;49.448;9.056;2024-01-15T00:34:18;-5.30;99.90
34147;DHT22;20423;49.448;9.056;2024-01-15T00:36:47;-5.30;99.90
34147;DHT22;20423;49.448;9.056;2024-01-15T00:39:13;-5.30;99.90
34147;DHT22;20423;49.448;9.056;2024-01-15T00:41:42;-5.30;99.90
34147;DHT22;20423;49.448;9.056;2024-01-15T00:44:20;-5.30;99.90
34147;DHT22;20423;49.448;9.056;2024-01-15T00:46:46;-5.30;99.90
34147;DHT22;20423;49.448;9.056;2024-01-15T00:49:12;-5.30;99.90
34147;DHT22;20423;49.448;9.056;2024-01-15T00:51:38;-5.30;99.90
34147;DHT22;20423;49.448;9.056;2024-01-15T00:54:04;-5.20;99.90
34147;DHT22;20423;49.448;9.056;2024-01-15T00:56:30;-5.30;99.90
34147;DHT22;20423;49.448;9.056;2024-01-15T00:58:55;-5.20;99.90
34147;DHT22;20423;49.448;9.056;2024-01-15T01:01:21;-5.20;99.90
34147;DHT22;20423;49.448;9.056;2024-01-15T01:03:55;-5.20;99.90
34147;DHT22;20423;49.448;9.056;2024-01-15T01:09:28;-5.20;99.90
34147;DHT22;20423;49.448;9.056;2024-01-15T01:11:55;-5.20;99.90
34147;DHT22;20423;49.448;9.056;2024-01-15T01:14:21;-5.20;99.90
34147;DHT22;20423;49.448;9.056;2024-01-15T01:16:47;-5.20;99.90
34147;DHT22;20423;49.448;9.056;2024-01-15T01:19:12;-5.10;99.90
34147;DHT22;20423;49.448;9.056;2024-01-15T01:21:38;-5.20;99.90
34147;DHT22;20423;49.448;9.056;2024-01-15T01:24:03;-5.10;99.90
34147;DHT22;20423;49.448;9.056;2024-01-15T01:26:29;-5.10;99.90
34147;DHT22;20423;49.448;9.056;2024-01-15T01:28:55;-5.10;99.90
34147;DHT22;20423;49.448;9.056;2024-01-15T01:31:21;-5.10;99.90
34147;DHT22;20423;49.448;9.056;2024-01-15T01:33:46;-5.10;99.90
34147;DHT22;20423;49.448;9.056;2024-01-15T01:36:12;-5.00;99.90
34147;DHT22;20423;49.448;9.056;2024-01-15T01:38:38;-5.00;99.90
34147;DHT22;20423;49.448;9.056;2024-01-15T01:41:03;-5.00;99.90
34147;DHT22;20423;49.448;9.056;2024-01-15T01:43:29;-5.00;99.90
34147;DHT22;20423;49.448;9.056;2024-01-15T01:45:55;-5.00;99.90
34147;DHT22;20423;49.448;9.056;2024-01-15T01:48:22;-5.00;99.90
34147;DHT22;20423;49.448;9.056;2024-01-15T01:50:47;-5.00;99.90
34147;DHT22;20423;49.448;9.056;2024-01-15T01:53:13;-5.00;99.90
34147;DHT22;20423;49.448;9.056;2024-01-15T01:55:38;-5.00;99.90
34147;DHT22;20423;49.448;9.056;2024-01-15T02:00:55;-5.00;99.90
34147;DHT22;20423;49.448;9.056;2024-01-15T02:06:33;-5.00;99.90
34147;DHT22;20423;49.448;9.056;2024-01-15T02:08:58;-4.90;99.90
34147;DHT22;20423;49.448;9.056;2024-01-15T02:14:12;-4.90;99.90
34147;DHT22;20423;49.448;9.056;2024-01-15T02:16:37;-4.90;99.90
34147;DHT22;20423;49.448;9.056;2024-01-15T02:19:03;-5.00;99.90
34147;DHT22;20423;49.448;9.056;2024-01-15T02:21:29;-5.00;99.90
34147;DHT22;20423;49.448;9.056;2024-01-15T02:23:56;-4.90;99.90
34147;DHT22;20423;49.448;9.056;2024-01-15T02:26:22;-4.90;99.90
34147;DHT22;20423;49.448;9.056;2024-01-15T02:28:48;-4.90;99.90
34147;DHT22;20423;49.448;9.056;2024-01-15T02:31:14;-4.90;99.90
34147;DHT22;20423;49.448;9.056;2024-01-15T02:33:39;-4.90;99.90
34147;DHT22;20423;49.448;9.056;2024-01-15T02:36:05;-4.80;99.90
34147;DHT22;20423;49.448;9.056;2024-01-15T02:38:31;-4.80;99.90
34147;DHT22;20423;49.448;9.056;2024-01-15T02:40:56;-4.80;99.90
34147;DHT22;20423;49.448;9.056;2024-01-15T02:43:22;-4.70;99.90
34147;DHT22;20423;49.448;9.056;2024-01-15T02:45:48;-4.70;99.90
34147;DHT22;20423;49.448;9.056;2024-01-15T02:48:13;-4.70;99.90
34147;DHT22;20423;49.448;9.056;2024-01-15T02:50:39;-4.80;99.90
34147;DHT22;20423;49.448;9.056;2024-01-15T02:53:04;-4.70;99.90
34147;DHT22;20423;49.448;9.056;2024-01-15T02:55:30;-4.70;99.90
34147;DHT22;20423;49.448;9.056;2024-01-15T02:57:56;-4.70;99.90
34147;DHT22;20423;49.448;9.056;2024-01-15T03:00:21;-4.70;99.90
34147;DHT22;20423;49.448;9.056;2024-01-15T03:02:47;-4.70;99.90
34147;DHT22;20423;49.448;9.056;2024-01-15T03:05:13;-4.70;99.90
34147;DHT22;20423;49.448;9.056;2024-01-15T03:07:38;-4.70;99.90
34147;DHT22;20423;49.448;9.056;2024-01-15T03:10:06;-4.70;99.90
34147;DHT22;20423;49.448;9.056;2024-01-15T03:12:32;-4.70;99.90
34147;DHT22;20423;49.448;9.056;2024-01-15T03:14:58;-4.70;99.90
34147;DHT22;20423;49.448;9.056;2024-01-15T03:17:23;-4.70;99.90
34147;DHT22;20423;49.448;9.056;2024-01-15T03:19:49;-4.70;99.90
34147;DHT22;20423;49.448;9.056;2024-01-15T03:22:15;-4.70;99.90
34147;DHT22;20423;49.448;9.056;2024-01-15T03:24:41;-4.70;99.90
34147;DHT22;20423;49.448;9.056;2024-01-15T03:27:06;-4.70;99.90
34147;DHT22;20423;49.448;9.056;2024-01-15T03:29:32;-4.70;99.90
34147;DHT22;20423;49.448;9.056;2024-01-15T03:31:58;-4.70;99.90
34147;DHT22;20423;49.448;9.056;2024-01-15T03:34:23;-4.80;99.90
34147;DHT22;20423;49.448;9.056;2024-01-15T03:36:49;-4.80;99.90
34147;DHT22;20423;49.448;9.056;2024-01-15T03:39:14;-4.80;99.90
34147;DHT22;20423;49.448;9.056;2024-01-15T03:41:40;-4.80;99.90
34147;DHT22;20423;49.448;9.056;2024-01-15T03:44:06;-4.80;99.90
34147;DHT22;20423;49.448;9.056;2024-01-15T03:46:31;-4.80;99.90
34147;DHT22;20423;49.448;9.056;2024-01-15T03:48:57;-4.80;99.90
34147;DHT22;20423;49.448;9.056;2024-01-15T03:51:23;-4.80;99.90
34147;DHT22;20423;49.448;9.056;2024-01-15T03:53:48;-4.80;99.90
34147;DHT22;20423;49.448;9.056;2024-01-15T03:56:14;-4.80;99.90
34147;DHT22;20423;49.448;9.056;2024-01-15T03:58:39;-4.80;99.90
34147;DHT22;20423;49.448;9.056;2024-01-15T04:01:11;-4.70;99.90
34147;DHT22;20423;49.448;9.056;2024-01-15T04:03:37;-4.70;99.90
34147;DHT22;20423;49.448;9.056;2024-01-15T04:06:03;-4.70;99.90
34147;DHT22;20423;49.448;9.056;2024-01-15T04:08:28;-4.70;99.90
34147;DHT22;20423;49.448;9.056;2024-01-15T04:10:54;-4.70;99.90
34147;DHT22;20423;49.448;9.056;2024-01-15T04:13:20;-4.70;99.90
34147;DHT22;20423;49.448;9.056;2024-01-15T04:15:46;-4.80;99.90
34147;DHT22;20423;49.448;9.056;2024-01-15T04:18:11;-4.70;99.90
34147;DHT22;20423;49.448;9.056;2024-01-15T04:20:37;-4.70;99.90
34147;DHT22;20423;49.448;9.056;2024-01-15T04:23:03;-4.70;99.90
34147;DHT22;20423;49.448;9.056;2024-01-15T04:25:29;-4.80;99.90
34147;DHT22;20423;49.448;9.056;2024-01-15T04:27:55;-4.70;99.90
34147;DHT22;20423;49.448;9.056;2024-01-15T04:30:20;-4.70;99.90
34147;DHT22;20423;49.448;9.056;2024-01-15T04:32:46;-4.70;99.90
34147;DHT22;20423;49.448;9.056;2024-01-15T04:35:12;-4.70;99.90
34147;DHT22;20423;49.448;9.056;2024-01-15T04:37:38;-4.70;99.90
34147;DHT22;20423;49.448;9.056;2024-01-15T04:40:04;-4.70;99.90
34147;DHT22;20423;49.448;9.056;2024-01-15T04:42:30;-4.70;99.90
34147;DHT22;20423;49.448;9.056;2024-01-15T04:44:56;-4.70;99.90
34147;DHT22;20423;49.448;9.056;2024-01-15T04:47:21;-4.60;99.90
34147;DHT22;20423;49.448;9.056;2024-01-15T04:49:47;-4.60;99.90
34147;DHT22;20423;49.448;9.056;2024-01-15T04:52:14;-4.70;99.90
34147;DHT22;20423;49.448;9.056;2024-01-15T04:54:40;-4.70;99.90
34147;DHT22;20423;49.448;9.056;2024-01-15T04:57:05;-4.70;99.90
34147;DHT22;20423;49.448;9.056;2024-01-15T04:59:31;-4.70;99.90
34147;DHT22;20423;49.448;9.056;2024-01-15T05:01:56;-4.70;99.90
34147;DHT22;20423;49.448;9.056;2024-01-15T05:04:22;-4.70;99.90
34147;DHT22;20423;49.448;9.056;2024-01-15T05:06:50;-4.70;99.90
34147;DHT22;20423;49.448;9.056;2024-01-15T05:09:15;-4.70;99.90
34147;DHT22;20423;49.448;9.056;2024-01-15T05:11:41;-4.60;99.90
34147;DHT22;20423;49.448;9.056;2024-01-15T05:14:07;-4.70;99.90
34147;DHT22;20423;49.448;9.056;2024-01-15T05:16:32;-4.60;99.90
34147;DHT22;20423;49.448;9.056;2024-01-15T05:18:58;-4.60;99.90
34147;DHT22;20423;49.448;9.056;2024-01-15T05:21:23;-4.60;99.90
34147;DHT22;20423;49.448;9.056;2024-01-15T05:23:49;-4.60;99.90
34147;DHT22;20423;49.448;9.056;2024-01-15T05:26:14;-4.60;99.90
34147;DHT22;20423;49.448;9.056;2024-01-15T05:28:41;-4.60;99.90
34147;DHT22;20423;49.448;9.056;2024-01-15T05:31:06;-4.60;99.90
34147;DHT22;20423;49.448;9.056;2024-01-15T05:33:32;-4.60;99.90
34147;DHT22;20423;49.448;9.056;2024-01-15T05:35:58;-4.60;99.90
34147;DHT22;20423;49.448;9.056;2024-01-15T05:38:24;-4.60;99.90
34147;DHT22;20423;49.448;9.056;2024-01-15T05:40:49;-4.50;99.90
34147;DHT22;20423;49.448;9.056;2024-01-15T05:43:15;-4.50;99.90
34147;DHT22;20423;49.448;9.056;2024-01-15T05:45:42;-4.50;99.90
34147;DHT22;20423;49.448;9.056;2024-01-15T05:48:08;-4.50;99.90
34147;DHT22;20423;49.448;9.056;2024-01-15T05:50:33;-4.50;99.90
34147;DHT22;20423;49.448;9.056;2024-01-15T05:52:59;-4.50;99.90
34147;DHT22;20423;49.448;9.056;2024-01-15T05:55:25;-4.50;99.90
34147;DHT22;20423;49.448;9.056;2024-01-15T05:57:50;-4.50;99.90
34147;DHT22;20423;49.448;9.056;2024-01-15T06:00:16;-4.50;99.90
34147;DHT22;20423;49.448;9.056;2024-01-15T06:02:42;-4.40;99.90
34147;DHT22;20423;49.448;9.056;2024-01-15T06:05:07;-4.40;99.90
34147;DHT22;20423;49.448;9.056;2024-01-15T06:07:34;-4.40;99.90
34147;DHT22;20423;49.448;9.056;2024-01-15T06:09:59;-4.40;99.90
34147;DHT22;20423;49.448;9.056;2024-01-15T06:12:25;-4.40;99.90
34147;DHT22;20423;49.448;9.056;2024-01-15T06:14:51;-4.40;99.90
34147;DHT22;20423;49.448;9.056;2024-01-15T06:17:16;-4.40;99.90
34147;DHT22;20423;49.448;9.056;2024-01-15T06:19:42;-4.40;99.90
34147;DHT22;20423;49.448;9.056;2024-01-15T06:22:07;-4.40;99.90
34147;DHT22;20423;49.448;9.056;2024-01-15T06:24:33;-4.40;99.90
34147;DHT22;20423;49.448;9.056;2024-01-15T06:26:59;-4.30;99.90
34147;DHT22;20423;49.448;9.056;2024-01-15T06:29:25;-4.30;99.90
34147;DHT22;20423;49.448;9.056;2024-01-15T06:31:51;-4.30;99.90
34147;DHT22;20423;49.448;9.056;2024-01-15T06:34:17;-4.30;99.90
34147;DHT22;20423;49.448;9.056;2024-01-15T06:36:42;-4.30;99.90
34147;DHT22;20423;49.448;9.056;2024-01-15T06:39:08;-4.30;99.90
34147;DHT22;20423;49.448;9.056;2024-01-15T06:41:35;-4.30;99.90
34147;DHT22;20423;49.448;9.056;2024-01-15T06:44:06;-4.30;99.90
34147;DHT22;20423;49.448;9.056;2024-01-15T06:46:32;-4.30;99.90
34147;DHT22;20423;49.448;9.056;2024-01-15T06:48:58;-4.30;99.90
34147;DHT22;20423;49.448;9.056;2024-01-15T06:51:23;-4.30;99.90
34147;DHT22;20423;49.448;9.056;2024-01-15T06:53:49;-4.30;99.90
34147;DHT22;20423;49.448;9.056;2024-01-15T06:56:15;-4.30;99.90
34147;DHT22;20423;49.448;9.056;2024-01-15T06:58:40;-4.20;99.90
34147;DHT22;20423;49.448;9.056;2024-01-15T07:01:06;-4.30;99.90
34147;DHT22;20423;49.448;9.056;2024-01-15T07:03:39;-4.20;99.90
34147;DHT22;20423;49.448;9.056;2024-01-15T07:06:05;-4.20;99.90
34147;DHT22;20423;49.448;9.056;2024-01-15T07:08:31;-4.20;99.90
34147;DHT22;20423;49.448;9.056;2024-01-15T07:10:56;-4.20;99.90
34147;DHT22;20423;49.448;9.056;2024-01-15T07:13:22;-4.20;99.90
34147;DHT22;20423;49.448;9.056;2024-01-15T07:15:48;-4.20;99.90
34147;DHT22;20423;49.448;9.056;2024-01-15T07:21:07;-4.10;99.90
34147;DHT22;20423;49.448;9.056;2024-01-15T07:23:32;-4.10;99.90
34147;DHT22;20423;49.448;9.056;2024-01-15T07:25:58;-4.10;99.90
34147;DHT22;20423;49.448;9.056;2024-01-15T07:28:24;-4.10;99.90
34147;DHT22;20423;49.448;9.056;2024-01-15T07:30:49;-4.00;99.90
34147;DHT22;20423;49.448;9.056;2024-01-15T07:33:15;-4.00;99.90
34147;DHT22;20423;49.448;9.056;2024-01-15T07:35:40;-4.00;99.90
34147;DHT22;20423;49.448;9.056;2024-01-15T07:38:06;-4.00;99.90
34147;DHT22;20423;49.448;9.056;2024-01-15T07:40:32;-4.00;99.90
34147;DHT22;20423;49.448;9.056;2024-01-15T07:42:57;-3.90;99.90
34147;DHT22;20423;49.448;9.056;2024-01-15T07:45:23;-3.90;99.90
34147;DHT22;20423;49.448;9.056;2024-01-15T07:47:52;-3.90;99.90
34147;DHT22;20423;49.448;9.056;2024-01-15T07:50:17;-3.90;99.90
34147;DHT22;20423;49.448;9.056;2024-01-15T07:52:46;-3.90;99.90
34147;DHT22;20423;49.448;9.056;2024-01-15T07:55:12;-3.90;99.90
34147;DHT22;20423;49.448;9.056;2024-01-15T07:57:37;-3.90;99.90
34147;DHT22;20423;49.448;9.056;2024-01-15T08:00:03;-3.80;99.90
34147;DHT22;20423;49.448;9.056;2024-01-15T08:02:32;-3.90;99.90
34147;DHT22;20423;49.448;9.056;2024-01-15T08:04:58;-3.80;99.90
34147;DHT22;20423;49.448;9.056;2024-01-15T08:07:24;-3.70;99.90
34147;DHT22;20423;49.448;9.056;2024-01-15T08:09:51;-3.70;99.90
34147;DHT22;20423;49.448;9.056;2024-01-15T08:12:17;-3.70;99.90
34147;DHT22;20423;49.448;9.056;2024-01-15T08:14:42;-3.70;99.90
34147;DHT22;20423;49.448;9.056;2024-01-15T08:17:08;-3.70;99.90
34147;DHT22;20423;49.448;9.056;2024-01-15T08:19:33;-3.70;99.90
34147;DHT22;20423;49.448;9.056;2024-01-15T08:21:59;-3.70;99.90
34147;DHT22;20423;49.448;9.056;2024-01-15T08:24:25;-3.70;99.90
34147;DHT22;20423;49.448;9.056;2024-01-15T08:30:19;-3.70;99.90
34147;DHT22;20423;49.448;9.056;2024-01-15T08:32:46;-3.70;99.90
34147;DHT22;20423;49.448;9.056;2024-01-15T08:35:12;-3.70;99.90
34147;DHT22;20423;49.448;9.056;2024-01-15T08:37:38;-3.70;99.90
34147;DHT22;20423;49.448;9.056;2024-01-15T08:40:04;-3.70;99.90
34147;DHT22;20423;49.448;9.056;2024-01-15T08:42:30;-3.60;99.90
34147;DHT22;20423;49.448;9.056;2024-01-15T08:44:55;-3.60;99.90
34147;DHT22;20423;49.448;9.056;2024-01-15T08:47:21;-3.60;99.90
34147;DHT22;20423;49.448;9.056;2024-01-15T08:49:46;-3.60;99.90
34147;DHT22;20423;49.448;9.056;2024-01-15T08:55:40;-3.50;99.90
34147;DHT22;20423;49.448;9.056;2024-01-15T08:58:07;-3.40;99.90
34147;DHT22;20423;49.448;9.056;2024-01-15T09:00:33;-3.30;99.90
34147;DHT22;20423;49.448;9.056;2024-01-15T09:03:17;-3.30;99.90
34147;DHT22;20423;49.448;9.056;2024-01-15T09:05:43;-3.30;99.90
34147;DHT22;20423;49.448;9.056;2024-01-15T09:08:09;-3.30;99.90
34147;DHT22;20423;49.448;9.056;2024-01-15T09:10:34;-3.30;99.90
34147;DHT22;20423;49.448;9.056;2024-01-15T09:13:00;-3.10;99.90
34147;DHT22;20423;49.448;9.056;2024-01-15T09:15:25;-3.20;99.90
34147;DHT22;20423;49.448;9.056;2024-01-15T09:17:51;-3.10;99.90
34147;DHT22;20423;49.448;9.056;2024-01-15T09:20:16;-3.00;99.90
34147;DHT22;20423;49.448;9.056;2024-01-15T09:22:42;-2.90;99.90
34147;DHT22;20423;49.448;9.056;2024-01-15T09:25:08;-2.80;99.90
34147;DHT22;20423;49.448;9.056;2024-01-15T09:27:35;-2.70;99.90
34147;DHT22;20423;49.448;9.056;2024-01-15T09:30:01;-2.60;99.90
34147;DHT22;20423;49.448;9.056;2024-01-15T09:32:26;-2.40;99.90
34147;DHT22;20423;49.448;9.056;2024-01-15T09:34:52;-2.20;99.90
34147;DHT22;20423;49.448;9.056;2024-01-15T09:37:18;-2.30;99.90
34147;DHT22;20423;49.448;9.056;2024-01-15T09:39:43;-2.50;99.90
34147;DHT22;20423;49.448;9.056;2024-01-15T09:42:09;-2.50;99.90
34147;DHT22;20423;49.448;9.056;2024-01-15T09:44:36;-2.60;99.90
34147;DHT22;20423;49.448;9.056;2024-01-15T09:47:02;-2.70;99.90
34147;DHT22;20423;49.448;9.056;2024-01-15T09:49:28;-2.80;99.90
34147;DHT22;20423;49.448;9.056;2024-01-15T09:51:55;-2.70;99.90
34147;DHT22;20423;49.448;9.056;2024-01-15T09:54:21;-2.70;99.90
34147;DHT22;20423;49.448;9.056;2024-01-15T09:56:46;-2.70;99.90
34147;DHT22;20423;49.448;9.056;2024-01-15T09:59:16;-2.80;99.90
34147;DHT22;20423;49.448;9.056;2024-01-15T10:01:41;-2.70;99.90
34147;DHT22;20423;49.448;9.056;2024-01-15T10:04:08;-2.70;99.90
34147;DHT22;20423;49.448;9.056;2024-01-15T10:06:34;-2.70;99.90
34147;DHT22;20423;49.448;9.056;2024-01-15T10:09:00;-2.70;99.90
34147;DHT22;20423;49.448;9.056;2024-01-15T10:11:25;-2.70;99.90
34147;DHT22;20423;49.448;9.056;2024-01-15T10:13:51;-2.70;99.90
34147;DHT22;20423;49.448;9.056;2024-01-15T10:16:21;-2.70;99.90
34147;DHT22;20423;49.448;9.056;2024-01-15T10:18:47;-2.60;99.90
34147;DHT22;20423;49.448;9.056;2024-01-15T10:21:13;-2.60;99.90
34147;DHT22;20423;49.448;9.056;2024-01-15T10:23:39;-2.50;99.90
34147;DHT22;20423;49.448;9.056;2024-01-15T10:26:05;-2.60;99.90
34147;DHT22;20423;49.448;9.056;2024-01-15T10:28:31;-2.60;99.90
34147;DHT22;20423;49.448;9.056;2024-01-15T10:31:04;-2.50;99.90
34147;DHT22;20423;49.448;9.056;2024-01-15T10:36:17;-2.20;99.90
34147;DHT22;20423;49.448;9.056;2024-01-15T10:38:43;-2.10;99.90
34147;DHT22;20423;49.448;9.056;2024-01-15T10:41:09;-2.20;99.90
34147;DHT22;20423;49.448;9.056;2024-01-15T10:43:35;-2.20;99.90
34147;DHT22;20423;49.448;9.056;2024-01-15T10:46:00;-2.20;99.90
34147;DHT22;20423;49.448;9.056;2024-01-15T10:48:39;-2.20;99.90
34147;DHT22;20423;49.448;9.056;2024-01-15T10:51:04;-2.10;99.90
34147;DHT22;20423;49.448;9.056;2024-01-15T10:53:39;-1.90;99.90
34147;DHT22;20423;49.448;9.056;2024-01-15T10:56:07;-2.00;99.90
34147;DHT22;20423;49.448;9.056;2024-01-15T10:58:35;-1.90;99.90
34147;DHT22;20423;49.448;9.056;2024-01-15T11:01:02;-1.90;99.90
34147;DHT22;20423;49.448;9.056;2024-01-15T11:03:28;-1.90;99.90
34147;DHT22;20423;49.448;9.056;2024-01-15T11:05:53;-1.90;99.90
34147;DHT22;20423;49.448;9.056;2024-01-15T11:11:20;-2.00;99.90
34147;DHT22;20423;49.448;9.056;2024-01-15T11:13:46;-1.90;99.90
34147;DHT22;20423;49.448;9.056;2024-01-15T11:16:13;-1.90;99.90
34147;DHT22;20423;49.448;9.056;2024-01-15T11:18:42;-1.90;99.90
34147;DHT22;20423;49.448;9.056;2024-01-15T11:23:47;-1.80;99.90
34147;DHT22;20423;49.448;9.056;2024-01-15T11:28:57;-1.80;99.90
34147;DHT22;20423;49.448;9.056;2024-01-15T11:34:06;-1.70;99.90
34147;DHT22;20423;49.448;9.056;2024-01-15T11:41:54;-1.70;99.90
34147;DHT22;20423;49.448;9.056;2024-01-15T11:44:20;-1.60;99.90
34147;DHT22;20423;49.448;9.056;2024-01-15T11:47:05;-1.60;99.90
34147;DHT22;20423;49.448;9.056;2024-01-15T11:52:09;-1.80;99.90
34147;DHT22;20423;49.448;9.056;2024-01-15T11:54:37;-1.80;99.90
34147;DHT22;20423;49.448;9.056;2024-01-15T11:57:04;-1.90;99.90
34147;DHT22;20423;49.448;9.056;2024-01-15T11:59:34;-1.80;99.90
34147;DHT22;20423;49.448;9.056;2024-01-15T12:02:00;-1.80;99.90
34147;DHT22;20423;49.448;9.056;2024-01-15T12:07:22;-1.80;99.90
34147;DHT22;20423;49.448;9.056;2024-01-15T12:09:48;-1.80;99.90
34147;DHT22;20423;49.448;9.056;2024-01-15T12:12:20;-1.80;99.90
34147;DHT22;20423;49.448;9.056;2024-01-15T12:14:47;-1.70;99.90
34147;DHT22;20423;49.448;9.056;2024-01-15T12:17:13;-1.70;99.90
34147;DHT22;20423;49.448;9.056;2024-01-15T12:19:39;-1.70;99.90
34147;DHT22;20423;49.448;9.056;2024-01-15T12:22:04;-1.70;99.90
34147;DHT22;20423;49.448;9.056;2024-01-15T12:24:30;-1.60;99.90
34147;DHT22;20423;49.448;9.056;2024-01-15T12:26:55;-1.70;99.90
34147;DHT22;20423;49.448;9.056;2024-01-15T12:29:21;-1.70;99.90
34147;DHT22;20423;49.448;9.056;2024-01-15T12:31:48;-1.60;99.90
34147;DHT22;20423;49.448;9.056;2024-01-15T12:34:13;-1.60;99.90
34147;DHT22;20423;49.448;9.056;2024-01-15T12:36:40;-1.60;99.90
34147;DHT22;20423;49.448;9.056;2024-01-15T12:39:05;-1.60;99.90
34147;DHT22;20423;49.448;9.056;2024-01-15T12:41:34;-1.50;99.90
34147;DHT22;20423;49.448;9.056;2024-01-15T12:44:00;-1.60;99.90
34147;DHT22;20423;49.448;9.056;2024-01-15T12:46:25;-1.80;99.90
34147;DHT22;20423;49.448;9.056;2024-01-15T12:48:51;-1.80;99.90
34147;DHT22;20423;49.448;9.056;2024-01-15T12:51:16;-1.80;99.90
34147;DHT22;20423;49.448;9.056;2024-01-15T12:56:42;-1.90;99.90
34147;DHT22;20423;49.448;9.056;2024-01-15T12:59:07;-2.00;99.90
34147;DHT22;20423;49.448;9.056;2024-01-15T13:01:33;-2.00;99.90
34147;DHT22;20423;49.448;9.056;2024-01-15T13:04:01;-2.00;99.90
34147;DHT22;20423;49.448;9.056;2024-01-15T13:06:26;-2.00;99.90
34147;DHT22;20423;49.448;9.056;2024-01-15T13:08:52;-2.10;99.90
34147;DHT22;20423;49.448;9.056;2024-01-15T13:11:17;-2.00;99.90
34147;DHT22;20423;49.448;9.056;2024-01-15T13:13:43;-2.00;99.90
34147;DHT22;20423;49.448;9.056;2024-01-15T13:16:08;-2.00;99.90
34147;DHT22;20423;49.448;9.056;2024-01-15T13:18:34;-2.00;99.90
34147;DHT22;20423;49.448;9.056;2024-01-15T13:21:00;-2.00;99.90
34147;DHT22;20423;49.448;9.056;2024-01-15T13:23:41;-2.00;99.90
34147;DHT22;20423;49.448;9.056;2024-01-15T13:26:06;-1.90;99.90
34147;DHT22;20423;49.448;9.056;2024-01-15T13:28:33;-1.80;99.90
34147;DHT22;20423;49.448;9.056;2024-01-15T13:30:59;-1.70;99.90
34147;DHT22;20423;49.448;9.056;2024-01-15T13:33:25;-1.70;99.90
34147;DHT22;20423;49.448;9.056;2024-01-15T13:35:51;-1.70;99.90
34147;DHT22;20423;49.448;9.056;2024-01-15T13:38:16;-1.60;99.90
34147;DHT22;20423;49.448;9.056;2024-01-15T13:40:42;-1.50;99.90
34147;DHT22;20423;49.448;9.056;2024-01-15T13:43:10;-1.50;99.90
34147;DHT22;20423;49.448;9.056;2024-01-15T13:45:36;-1.50;99.90
34147;DHT22;20423;49.448;9.056;2024-01-15T13:48:04;-1.60;99.90
34147;DHT22;20423;49.448;9.056;2024-01-15T13:50:31;-1.70;99.90
34147;DHT22;20423;49.448;9.056;2024-01-15T13:52:57;-1.60;99.90
34147;DHT22;20423;49.448;9.056;2024-01-15T13:55:22;-1.60;99.90
34147;DHT22;20423;49.448;9.056;2024-01-15T13:57:48;-1.60;99.90
34147;DHT22;20423;49.448;9.056;2024-01-15T14:00:14;-1.60;99.90
34147;DHT22;20423;49.448;9.056;2024-01-15T14:02:44;-1.60;99.90
34147;DHT22;20423;49.448;9.056;2024-01-15T14:05:09;-1.50;99.90
34147;DHT22;20423;49.448;9.056;2024-01-15T14:07:40;-1.50;99.90
34147;DHT22;20423;49.448;9.056;2024-01-15T14:10:09;-1.40;99.90
34147;DHT22;20423;49.448;9.056;2024-01-15T14:15:23;-1.40;99.90
34147;DHT22;20423;49.448;9.056;2024-01-15T14:17:48;-1.50;99.90
34147;DHT22;20423;49.448;9.056;2024-01-15T14:20:14;-1.50;99.90
34147;DHT22;20423;49.448;9.056;2024-01-15T14:22:40;-1.60;99.90
34147;DHT22;20423;49.448;9.056;2024-01-15T14:25:06;-1.70;99.90
34147;DHT22;20423;49.448;9.056;2024-01-15T14:27:32;-1.60;99.90
34147;DHT22;20423;49.448;9.056;2024-01-15T14:29:58;-1.60;99.90
34147;DHT22;20423;49.448;9.056;2024-01-15T14:32:23;-1.60;99.90
34147;DHT22;20423;49.448;9.056;2024-01-15T14:34:54;-1.50;99.90
34147;DHT22;20423;49.448;9.056;2024-01-15T14:37:22;-1.60;99.90
34147;DHT22;20423;49.448;9.056;2024-01-15T14:39:47;-1.50;99.90
34147;DHT22;20423;49.448;9.056;2024-01-15T14:42:13;-1.50;99.90
34147;DHT22;20423;49.448;9.056;2024-01-15T14:44:38;-1.30;99.90
34147;DHT22;20423;49.448;9.056;2024-01-15T14:47:06;-1.40;99.90
34147;DHT22;20423;49.448;9.056;2024-01-15T14:49:32;-1.50;99.90
34147;DHT22;20423;49.448;9.056;2024-01-15T14:52:00;-1.60;99.90
34147;DHT22;20423;49.448;9.056;2024-01-15T14:54:31;-1.60;99.90
34147;DHT22;20423;49.448;9.056;2024-01-15T14:56:59;-1.60;99.90
34147;DHT22;20423;49.448;9.056;2024-01-15T14:59:32;-1.60;99.90
34147;DHT22;20423;49.448;9.056;2024-01-15T15:01:59;-1.60;99.90
34147;DHT22;20423;49.448;9.056;2024-01-15T15:04:25;-1.70;99.90
34147;DHT22;20423;49.448;9.056;2024-01-15T15:06:51;-1.70;99.90
34147;DHT22;20423;49.448;9.056;2024-01-15T15:09:17;-1.70;99.90
34147;DHT22;20423;49.448;9.056;2024-01-15T15:14:34;-1.70;99.90
34147;DHT22;20423;49.448;9.056;2024-01-15T15:17:04;-1.70;99.90
34147;DHT22;20423;49.448;9.056;2024-01-15T15:19:29;-1.80;99.90
34147;DHT22;20423;49.448;9.056;2024-01-15T15:21:58;-1.80;99.90
34147;DHT22;20423;49.448;9.056;2024-01-15T15:24:24;-1.80;99.90
34147;DHT22;20423;49.448;9.056;2024-01-15T15:26:57;-1.80;99.90
34147;DHT22;20423;49.448;9.056;2024-01-15T15:29:27;-1.80;99.90
34147;DHT22;20423;49.448;9.056;2024-01-15T15:31:54;-1.70;99.90
34147;DHT22;20423;49.448;9.056;2024-01-15T15:34:19;-1.80;99.90
34147;DHT22;20423;49.448;9.056;2024-01-15T15:36:45;-1.80;99.90
34147;DHT22;20423;49.448;9.056;2024-01-15T15:39:10;-1.80;99.90
34147;DHT22;20423;49.448;9.056;2024-01-15T15:41:36;-1.90;99.90
34147;DHT22;20423;49.448;9.056;2024-01-15T15:44:02;-1.90;99.90
34147;DHT22;20423;49.448;9.056;2024-01-15T15:46:27;-1.90;99.90
34147;DHT22;20423;49.448;9.056;2024-01-15T15:48:56;-1.90;99.90
34147;DHT22;20423;49.448;9.056;2024-01-15T15:51:21;-1.90;99.90
34147;DHT22;20423;49.448;9.056;2024-01-15T15:53:47;-1.90;99.90
34147;DHT22;20423;49.448;9.056;2024-01-15T15:56:13;-1.90;99.90
34147;DHT22;20423;49.448;9.056;2024-01-15T15:58:39;-1.90;99.90
34147;DHT22;20423;49.448;9.056;2024-01-15T16:01:05;-1.90;99.90
34147;DHT22;20423;49.448;9.056;2024-01-15T16:03:31;-2.00;99.90
34147;DHT22;20423;49.448;9.056;2024-01-15T16:05:56;-1.90;99.90
34147;DHT22;20423;49.448;9.056;2024-01-15T16:08:22;-2.00;99.90
34147;DHT22;20423;49.448;9.056;2024-01-15T16:10:48;-2.00;99.90
34147;DHT22;20423;49.448;9.056;2024-01-15T16:13:15;-2.00;99.90
34147;DHT22;20423;49.448;9.056;2024-01-15T16:15:41;-2.00;99.90
34147;DHT22;20423;49.448;9.056;2024-01-15T16:18:07;-2.00;99.90
34147;DHT22;20423;49.448;9.056;2024-01-15T16:20:32;-2.00;99.90
34147;DHT22;20423;49.448;9.056;2024-01-15T16:23:16;-2.00;99.90